Terminal Aerodrome Forecast
Issued by NWS

Home | Current Version | Previous Version | Text Only | Print | Product List | Glossary On
Versions: 1 2 3 4 5 6 7 8 9 10 11 12 13 14 15 16
000
FTUS43 KIWX 302100 AAA
TAFSBN
TAF AMD
KSBN 302116Z 3021/3118 21013KT P6SM VCTS SCT040CB BKN150
      TEMPO 3022/3102 4SM -TSRA BKN040CB
     FM310600 22004KT 5SM BR BKN035
     FM310900 21003KT 3SM BR BKN008
     FM311500 22007KT P6SM BKN025=

USA.gov is the U.S. government's official web portal to all federal, state and local government web resources and services.